createdAt,value
2019-02-05T00:01:39.300Z,5.90
2019-02-05T00:04:08.371Z,6.20
2019-02-05T00:06:37.432Z,6.37
2019-02-05T00:09:10.910Z,7.10
2019-02-05T00:11:40.004Z,6.63
2019-02-05T00:14:09.276Z,7.27
2019-02-05T00:16:38.518Z,6.47
2019-02-05T00:19:07.793Z,6.97
2019-02-05T00:21:36.783Z,7.37
2019-02-05T00:24:05.907Z,6.57
2019-02-05T00:26:34.889Z,5.70
2019-02-05T00:29:04.006Z,6.70
2019-02-05T00:31:33.430Z,6.03
2019-02-05T00:34:02.352Z,6.80
2019-02-05T00:36:31.322Z,6.30
2019-02-05T00:39:00.285Z,7.80
2019-02-05T00:41:29.417Z,6.93
2019-02-05T00:43:58.457Z,6.57
2019-02-05T00:46:27.519Z,6.93
2019-02-05T00:48:56.519Z,6.40
2019-02-05T00:51:25.483Z,6.57
2019-02-05T00:53:54.475Z,6.93
2019-02-05T00:56:23.459Z,7.92
2019-02-05T00:58:52.439Z,6.73
2019-02-05T01:01:21.452Z,6.97
2019-02-05T01:03:50.447Z,6.70
2019-02-05T01:06:19.450Z,6.30
2019-02-05T01:08:48.471Z,6.47
2019-02-05T01:11:17.940Z,6.50
2019-02-05T01:13:46.862Z,6.57
2019-02-05T01:16:15.858Z,6.40
2019-02-05T01:18:44.815Z,7.77
2019-02-05T01:21:13.889Z,6.80
2019-02-05T01:23:42.919Z,7.33
2019-02-05T01:26:11.987Z,6.70
2019-02-05T01:28:41.656Z,6.43
2019-02-05T01:31:10.773Z,8.00
2019-02-05T01:33:39.744Z,7.50
2019-02-05T01:36:08.692Z,7.30
2019-02-05T01:38:37.763Z,7.50
2019-02-05T01:41:06.780Z,6.70
2019-02-05T01:43:35.852Z,7.10
2019-02-05T01:46:05.251Z,7.03
2019-02-05T01:48:34.224Z,7.00
2019-02-05T01:51:03.277Z,7.60
2019-02-05T01:53:32.317Z,7.30
2019-02-05T01:56:01.231Z,6.50
2019-02-05T01:58:30.219Z,7.07
2019-02-05T02:00:59.523Z,6.80
2019-02-05T02:03:28.475Z,6.77
2019-02-05T02:05:57.471Z,6.73
2019-02-05T02:08:26.595Z,6.27
2019-02-05T02:10:55.761Z,6.47
2019-02-05T02:13:25.174Z,6.73
2019-02-05T02:15:54.096Z,7.17
2019-02-05T02:18:23.457Z,5.97
2019-02-05T02:20:52.495Z,6.83
2019-02-05T02:23:21.707Z,6.83
2019-02-05T02:25:50.786Z,7.07
2019-02-05T02:28:19.964Z,6.30
2019-02-05T02:30:49.038Z,6.83
2019-02-05T02:33:18.506Z,6.37
2019-02-05T02:35:47.576Z,6.50
2019-02-05T02:38:16.719Z,7.67
2019-02-05T02:40:45.636Z,7.57
2019-02-05T02:43:14.752Z,7.03
2019-02-05T02:45:43.708Z,6.80
2019-02-05T02:48:13.062Z,6.90
2019-02-05T02:50:42.001Z,7.23
2019-02-05T02:53:11.078Z,6.57
2019-02-05T02:55:40.105Z,6.60
2019-02-05T02:58:09.239Z,6.33
2019-02-05T03:00:38.388Z,6.60
2019-02-05T03:03:07.937Z,7.00
2019-02-05T03:05:36.989Z,6.70
2019-02-05T03:08:06.079Z,6.30
2019-02-05T03:10:35.115Z,6.97
2019-02-05T03:13:04.242Z,6.67
2019-02-05T03:15:33.220Z,7.10
2019-02-05T03:18:02.146Z,6.70
2019-02-05T03:20:31.424Z,6.50
2019-02-05T03:23:00.516Z,7.27
2019-02-05T03:25:29.713Z,5.93
2019-02-05T03:27:58.871Z,5.50
2019-02-05T03:30:27.890Z,5.80
2019-02-05T03:32:57.002Z,6.43
2019-02-05T03:35:26.148Z,7.27
2019-02-05T03:37:55.182Z,6.40
2019-02-05T03:41:00.751Z,6.83
2019-02-05T03:43:29.796Z,6.60
2019-02-05T03:46:00.609Z,5.87
2019-02-05T03:48:31.060Z,6.03
2019-02-05T03:51:24.892Z,6.63
2019-02-05T03:54:02.264Z,6.53
2019-02-05T03:57:01.083Z,6.40
2019-02-05T04:00:16.402Z,6.83
2019-02-05T04:03:23.933Z,6.13
2019-02-05T04:06:01.614Z,6.30
2019-02-05T04:08:46.952Z,6.03
2019-02-05T04:12:01.493Z,6.40
2019-02-05T04:15:09.579Z,5.17
2019-02-05T04:18:15.177Z,5.80
2019-02-05T04:21:07.798Z,6.00
2019-02-05T04:24:18.359Z,5.83
2019-02-05T04:27:20.020Z,5.40
2019-02-05T04:30:31.985Z,6.00
2019-02-05T04:33:38.471Z,5.60
2019-02-05T04:36:39.120Z,6.10
2019-02-05T04:39:46.800Z,6.03
2019-02-05T04:42:47.369Z,5.50
2019-02-05T04:46:12.783Z,6.20
2019-02-05T04:49:24.214Z,5.97
2019-02-05T04:52:33.831Z,6.30
2019-02-05T04:55:20.851Z,5.77
2019-02-05T04:58:14.117Z,6.37
2019-02-05T05:01:36.999Z,5.80
2019-02-05T05:04:25.004Z,5.83
2019-02-05T05:07:25.639Z,5.77
2019-02-05T05:09:59.326Z,5.80
2019-02-05T05:12:29.583Z,6.53
2019-02-05T05:14:59.252Z,6.30
2019-02-05T05:17:28.328Z,6.13
2019-02-05T05:19:57.469Z,6.00
2019-02-05T05:22:26.778Z,5.73
2019-02-05T05:24:55.948Z,7.00
2019-02-05T05:27:26.072Z,6.07
2019-02-05T05:29:55.228Z,6.53
2019-02-05T05:32:24.349Z,6.07
2019-02-05T05:34:53.451Z,6.23
2019-02-05T05:37:22.833Z,5.50
2019-02-05T05:39:51.992Z,6.00
2019-02-05T05:42:20.993Z,6.27
2019-02-05T05:44:50.062Z,6.03
2019-02-05T05:47:19.080Z,6.20
2019-02-05T05:49:48.131Z,6.97
2019-02-05T05:52:17.158Z,6.97
2019-02-05T05:54:46.105Z,8.30
2019-02-05T05:57:18.458Z,7.90
2019-02-05T05:59:45.813Z,8.80
2019-02-05T06:02:14.796Z,7.87
2019-02-05T06:04:43.854Z,8.57
2019-02-05T06:07:12.877Z,8.43
2019-02-05T06:09:41.935Z,7.23
2019-02-05T06:12:10.968Z,7.27
2019-02-05T06:14:39.892Z,7.70
2019-02-05T06:17:09.062Z,7.50
2019-02-05T06:19:38.122Z,7.03
2019-02-05T06:22:07.153Z,7.30
2019-02-05T06:24:36.317Z,7.17
2019-02-05T06:27:05.430Z,8.70
2019-02-05T06:29:34.427Z,9.60
2019-02-05T06:32:04.027Z,8.97
2019-02-05T06:34:33.196Z,9.47
2019-02-05T06:37:02.212Z,9.63
2019-02-05T06:39:31.290Z,11.55
2019-02-05T06:42:00.374Z,11.43
2019-02-05T06:44:29.410Z,11.63
2019-02-05T06:46:58.480Z,26.50
2019-02-05T06:49:27.780Z,31.63
2019-02-05T06:51:56.787Z,18.87
2019-02-05T06:54:25.843Z,12.07
2019-02-05T06:56:54.837Z,9.83
2019-02-05T06:59:23.835Z,11.50
2019-02-05T07:01:52.820Z,14.80
2019-02-05T07:04:21.787Z,12.07
2019-02-05T07:06:50.793Z,8.93
2019-02-05T07:09:19.859Z,10.53
2019-02-05T07:11:48.932Z,14.30
2019-02-05T07:14:18.045Z,12.20
2019-02-05T07:16:47.133Z,12.10
2019-02-05T07:19:16.140Z,15.83
2019-02-05T07:21:45.476Z,23.23
2019-02-05T07:24:14.554Z,14.27
2019-02-05T07:26:43.560Z,12.90
2019-02-05T07:29:14.913Z,13.03
2019-02-05T07:31:44.116Z,20.53
2019-02-05T07:34:13.088Z,15.17
2019-02-05T07:36:42.094Z,14.37
2019-02-05T07:39:11.392Z,16.97
2019-02-05T07:41:40.588Z,16.33
2019-02-05T07:44:09.719Z,18.90
2019-02-05T07:46:38.829Z,18.77
2019-02-05T07:49:07.827Z,16.40
2019-02-05T07:51:36.915Z,20.57
2019-02-05T07:54:06.187Z,14.83
2019-02-05T07:56:35.611Z,19.07
2019-02-05T07:59:10.155Z,12.93
2019-02-05T08:01:35.874Z,13.53
2019-02-05T08:04:05.092Z,13.83
2019-02-05T08:06:34.088Z,12.67
2019-02-05T08:09:04.797Z,14.23
2019-02-05T08:11:33.787Z,13.17
2019-02-05T08:14:06.004Z,16.20
2019-02-05T08:16:34.107Z,13.47
2019-02-05T08:19:03.303Z,17.07
2019-02-05T08:21:32.406Z,17.23
2019-02-05T08:24:01.515Z,14.27
2019-02-05T08:26:30.644Z,17.40
2019-02-05T08:28:59.683Z,19.63
2019-02-05T08:31:29.196Z,23.73
2019-02-05T08:33:58.270Z,33.47
2019-02-05T08:36:27.276Z,20.47
2019-02-05T08:38:56.314Z,24.70
2019-02-05T08:41:25.350Z,16.37
2019-02-05T08:43:54.344Z,24.73
2019-02-05T08:46:23.411Z,13.97
2019-02-05T08:48:52.815Z,16.67
2019-02-05T08:51:21.839Z,15.13
2019-02-05T08:53:50.858Z,17.10
2019-02-05T08:56:19.868Z,16.60
2019-02-05T08:58:48.904Z,14.13
2019-02-05T09:01:18.297Z,14.17
2019-02-05T09:03:47.330Z,23.13
2019-02-05T09:06:16.568Z,14.60
2019-02-05T09:08:45.588Z,13.50
2019-02-05T09:11:14.728Z,13.10
2019-02-05T09:13:43.674Z,14.63
2019-02-05T09:16:12.911Z,14.30
2019-02-05T09:18:42.068Z,14.10
2019-02-05T09:21:11.240Z,15.70
2019-02-05T09:23:40.391Z,15.27
2019-02-05T09:26:09.473Z,15.53
2019-02-05T09:28:38.488Z,16.87
2019-02-05T09:31:07.500Z,14.57
2019-02-05T09:33:36.528Z,15.03
2019-02-05T09:36:05.510Z,17.57
2019-02-05T09:38:34.612Z,15.63
2019-02-05T09:41:03.690Z,19.97
2019-02-05T09:43:32.850Z,18.13
2019-02-05T09:46:01.890Z,17.90
2019-02-05T09:48:30.991Z,15.00
2019-02-05T09:51:03.220Z,18.67
2019-02-05T09:53:32.244Z,16.80
2019-02-05T09:56:01.525Z,18.03
2019-02-05T09:58:30.645Z,18.40
2019-02-05T10:00:59.905Z,26.93
2019-02-05T10:03:28.957Z,27.50
2019-02-05T10:05:57.925Z,38.93
2019-02-05T10:08:27.024Z,16.20
2019-02-05T10:10:56.061Z,16.33
2019-02-05T10:13:25.329Z,23.17
2019-02-05T10:15:54.545Z,19.03
2019-02-05T10:18:23.531Z,25.50
2019-02-05T10:20:53.505Z,19.03
2019-02-05T10:23:22.694Z,21.70
2019-02-05T10:25:51.771Z,17.93
2019-02-05T10:28:20.848Z,13.60
2019-02-05T10:30:49.892Z,25.17
2019-02-05T10:33:18.960Z,15.37
2019-02-05T10:35:47.996Z,18.27
2019-02-05T10:38:17.501Z,25.47
2019-02-05T10:40:46.581Z,21.00
2019-02-05T10:43:15.644Z,16.90
2019-02-05T10:45:44.999Z,15.40
2019-02-05T10:48:14.165Z,20.33
2019-02-05T10:50:43.200Z,16.67
2019-02-05T10:53:12.290Z,25.03
2019-02-05T10:55:41.384Z,17.33
2019-02-05T10:58:10.643Z,25.17
2019-02-05T11:00:40.174Z,20.83
2019-02-05T11:03:10.127Z,13.67
2019-02-05T11:05:39.204Z,26.67
2019-02-05T11:08:08.962Z,21.57
2019-02-05T11:10:38.091Z,15.43
2019-02-05T11:13:07.840Z,15.37
2019-02-05T11:15:36.933Z,14.87
2019-02-05T11:18:08.217Z,16.20
2019-02-05T11:20:37.388Z,14.43
2019-02-05T11:23:07.363Z,14.10
2019-02-05T11:25:36.948Z,16.27
2019-02-05T11:28:06.015Z,39.87
2019-02-05T11:30:40.155Z,19.65
2019-02-05T11:33:09.164Z,19.30
2019-02-05T11:35:38.570Z,23.17
2019-02-05T11:38:08.853Z,17.97
2019-02-05T11:40:38.740Z,15.60
2019-02-05T11:43:07.815Z,16.47
2019-02-05T11:45:36.996Z,15.33
2019-02-05T11:48:09.544Z,16.27
2019-02-05T11:50:38.523Z,15.63
2019-02-05T11:53:07.743Z,15.07
2019-02-05T11:55:36.866Z,15.17
2019-02-05T11:58:06.026Z,17.13
2019-02-05T12:01:09.587Z,15.87
2019-02-05T12:03:38.674Z,16.20
2019-02-05T12:06:07.769Z,15.37
2019-02-05T12:08:36.816Z,16.80
2019-02-05T12:11:05.940Z,16.47
2019-02-05T12:13:35.009Z,14.33
2019-02-05T12:16:05.732Z,15.87
2019-02-05T12:18:34.735Z,16.50
2019-02-05T12:21:03.934Z,16.67
2019-02-05T12:23:33.015Z,16.93
2019-02-05T12:26:02.059Z,17.20
2019-02-05T12:28:31.201Z,19.23
2019-02-05T12:31:00.287Z,16.00
2019-02-05T12:33:29.751Z,24.23
2019-02-05T12:35:58.920Z,19.50
2019-02-05T12:38:27.919Z,20.80
2019-02-05T12:40:56.960Z,20.10
2019-02-05T12:43:26.104Z,14.73
2019-02-05T12:45:55.248Z,14.43
2019-02-05T12:48:24.432Z,17.43
2019-02-05T12:50:53.593Z,16.13
2019-02-05T12:53:22.767Z,15.33
2019-02-05T12:55:51.711Z,14.27
2019-02-05T12:58:20.737Z,13.00
2019-02-05T13:00:59.323Z,14.57
2019-02-05T13:03:23.185Z,15.77
2019-02-05T13:05:52.773Z,14.33
2019-02-05T13:08:21.726Z,14.93
2019-02-05T13:10:52.450Z,13.97
2019-02-05T13:13:21.676Z,15.40
2019-02-05T13:15:50.674Z,12.87
2019-02-05T13:18:19.987Z,16.00
2019-02-05T13:20:49.290Z,19.97
2019-02-05T13:23:18.280Z,14.13
2019-02-05T13:25:47.229Z,14.97
2019-02-05T13:28:16.287Z,12.80
2019-02-05T13:30:45.420Z,14.63
2019-02-05T13:33:16.120Z,13.93
2019-02-05T13:35:45.359Z,15.50
2019-02-05T13:38:14.375Z,14.77
2019-02-05T13:40:45.873Z,14.20
2019-02-05T13:43:14.873Z,14.27
2019-02-05T13:45:44.150Z,14.60
2019-02-05T13:48:13.440Z,12.67
2019-02-05T13:50:42.667Z,13.83
2019-02-05T13:53:11.788Z,13.40
2019-02-05T13:55:44.411Z,14.30
2019-02-05T13:58:15.742Z,15.33
2019-02-05T14:00:49.770Z,16.03
2019-02-05T14:03:18.894Z,17.10
2019-02-05T14:05:48.152Z,15.50
2019-02-05T14:08:17.189Z,15.27
2019-02-05T14:10:47.102Z,14.47
2019-02-05T14:13:16.351Z,14.83
2019-02-05T14:15:47.699Z,14.57
2019-02-05T14:18:16.677Z,14.30
2019-02-05T14:20:45.676Z,13.77
2019-02-05T14:23:14.583Z,13.30
2019-02-05T14:25:43.627Z,14.47
2019-02-05T14:28:12.552Z,13.27
2019-02-05T14:30:51.024Z,14.83
2019-02-05T14:33:20.124Z,18.00
2019-02-05T14:35:49.083Z,17.37
2019-02-05T14:38:18.089Z,12.67
2019-02-05T14:40:47.278Z,15.67
2019-02-05T14:43:16.373Z,17.07
2019-02-05T14:45:45.744Z,18.50
2019-02-05T14:48:14.756Z,21.43
2019-02-05T14:50:44.518Z,22.87
2019-02-05T14:53:13.702Z,19.70
2019-02-05T14:55:42.732Z,19.57
2019-02-05T14:58:13.475Z,17.60
2019-02-05T15:00:42.632Z,17.90
2019-02-05T15:03:12.659Z,17.03
2019-02-05T15:05:42.483Z,19.70
2019-02-05T15:08:12.597Z,21.23
2019-02-05T15:10:44.938Z,21.43
2019-02-05T15:13:16.089Z,26.03
2019-02-05T15:15:45.064Z,15.83
2019-02-05T15:18:18.544Z,16.77
2019-02-05T15:20:49.030Z,21.27
2019-02-05T15:23:18.029Z,21.20
2019-02-05T15:25:47.229Z,22.73
2019-02-05T15:28:16.235Z,17.27
2019-02-05T15:30:45.410Z,16.33
2019-02-05T15:33:24.438Z,16.60
2019-02-05T15:36:01.840Z,16.17
2019-02-05T15:38:31.570Z,16.30
2019-02-05T15:41:00.717Z,18.97
2019-02-05T15:43:29.767Z,16.03
2019-02-05T15:45:58.787Z,15.60
2019-02-05T15:48:27.713Z,19.97
2019-02-05T15:50:56.725Z,48.17
2019-02-05T15:53:26.277Z,32.67
2019-02-05T15:55:55.308Z,25.07
2019-02-05T15:58:24.426Z,19.37
2019-02-05T16:00:53.538Z,19.77
2019-02-05T16:03:22.638Z,22.77
2019-02-05T16:05:51.683Z,28.60
2019-02-05T16:08:21.096Z,23.87
2019-02-05T16:10:50.169Z,20.17
2019-02-05T16:13:19.148Z,17.63
2019-02-05T16:15:48.131Z,18.30
2019-02-05T16:18:17.213Z,19.27
2019-02-05T16:20:46.249Z,17.57
2019-02-05T16:23:15.960Z,19.60
2019-02-05T16:25:45.026Z,20.27
2019-02-05T16:28:14.015Z,23.57
2019-02-05T16:30:43.007Z,22.70
2019-02-05T16:33:12.021Z,18.50
2019-02-05T16:35:41.024Z,17.80
2019-02-05T16:38:10.136Z,17.87
2019-02-05T16:40:39.409Z,17.47
2019-02-05T16:43:08.583Z,19.97
2019-02-05T16:45:37.857Z,21.97
2019-02-05T16:48:06.926Z,23.23
2019-02-05T16:50:38.166Z,22.90
2019-02-05T16:53:08.352Z,56.20
2019-02-05T16:55:37.827Z,69.70
2019-02-05T16:58:07.196Z,79.53
2019-02-05T17:00:36.360Z,43.83
2019-02-05T17:03:07.164Z,31.37
2019-02-05T17:05:37.821Z,38.97
2019-02-05T17:08:07.127Z,35.17
2019-02-05T17:10:36.205Z,44.27
2019-02-05T17:13:05.931Z,63.77
2019-02-05T17:15:35.231Z,39.97
2019-02-05T17:18:04.616Z,25.30
2019-02-05T17:20:34.230Z,26.17
2019-02-05T17:23:04.172Z,26.43
2019-02-05T17:25:35.862Z,40.10
2019-02-05T17:28:04.993Z,35.70
2019-02-05T17:30:36.215Z,27.33
2019-02-05T17:33:05.427Z,34.40
2019-02-05T17:35:35.467Z,23.17
2019-02-05T17:38:06.993Z,19.50
2019-02-05T17:40:36.085Z,25.17
2019-02-05T17:43:05.937Z,35.67
2019-02-05T17:45:36.760Z,24.87
2019-02-05T17:48:11.217Z,30.67
2019-02-05T17:50:40.524Z,40.10
2019-02-05T17:53:09.517Z,34.07
2019-02-05T17:55:38.850Z,43.17
2019-02-05T17:58:07.968Z,53.07
2019-02-05T18:00:44.856Z,80.40
2019-02-05T18:03:13.754Z,41.00
2019-02-05T18:05:42.769Z,63.37
2019-02-05T18:08:12.423Z,39.80
2019-02-05T18:10:42.064Z,61.23
2019-02-05T18:13:11.310Z,39.57
2019-02-05T18:15:43.932Z,27.03
2019-02-05T18:18:13.012Z,27.60
2019-02-05T18:20:42.101Z,28.67
2019-02-05T18:23:11.208Z,26.90
2019-02-05T18:25:40.436Z,33.20
2019-02-05T18:28:09.625Z,41.83
2019-02-05T18:30:38.637Z,27.60
2019-02-05T18:33:07.731Z,25.07
2019-02-05T18:35:36.895Z,25.13
2019-02-05T18:38:07.223Z,38.37
2019-02-05T18:40:36.392Z,41.57
2019-02-05T18:43:05.872Z,22.43
2019-02-05T18:45:34.912Z,22.17
2019-02-05T18:48:04.069Z,39.60
2019-02-05T18:50:33.309Z,26.50
2019-02-05T18:53:02.423Z,19.03
2019-02-05T18:55:32.037Z,23.20
2019-02-05T18:58:08.771Z,36.90
2019-02-05T19:00:34.313Z,42.20
2019-02-05T19:03:14.522Z,35.57
2019-02-05T19:05:34.648Z,29.53
2019-02-05T19:08:03.730Z,29.63
2019-02-05T19:10:32.893Z,35.37
2019-02-05T19:13:02.101Z,26.80
2019-02-05T19:15:35.752Z,35.23
2019-02-05T19:18:05.872Z,26.10
2019-02-05T19:20:34.954Z,26.87
2019-02-05T19:23:06.765Z,21.23
2019-02-05T19:25:52.408Z,24.63
2019-02-05T19:28:32.835Z,35.43
2019-02-05T19:31:10.584Z,36.80
2019-02-05T19:33:39.640Z,22.47
2019-02-05T19:36:08.581Z,22.70
2019-02-05T19:38:37.553Z,22.13
2019-02-05T19:41:06.755Z,23.83
2019-02-05T19:43:35.761Z,22.17
2019-02-05T19:46:25.332Z,24.17
2019-02-05T19:49:01.662Z,22.33
2019-02-05T19:51:31.036Z,26.20
2019-02-05T19:54:00.112Z,22.17
2019-02-05T19:56:37.863Z,22.70
2019-02-05T19:59:00.025Z,22.20
2019-02-05T20:01:29.139Z,21.80
2019-02-05T20:03:58.127Z,23.77
2019-02-05T20:06:27.091Z,27.47
2019-02-05T20:08:56.099Z,21.17
2019-02-05T20:11:25.180Z,23.53
2019-02-05T20:13:54.295Z,19.37
2019-02-05T20:16:23.366Z,21.60
2019-02-05T20:18:52.332Z,19.33
2019-02-05T20:21:21.306Z,22.93
2019-02-05T20:23:50.264Z,20.20
2019-02-05T20:26:19.692Z,20.17
2019-02-05T20:28:48.622Z,20.37
2019-02-05T20:31:17.639Z,20.83
2019-02-05T20:33:49.892Z,21.07
2019-02-05T20:36:17.465Z,21.50
2019-02-05T20:38:46.813Z,20.60
2019-02-05T20:41:15.775Z,20.93
2019-02-05T20:43:44.741Z,25.17
2019-02-05T20:46:13.884Z,30.30
2019-02-05T20:48:42.880Z,22.27
2019-02-05T20:51:11.815Z,25.73
2019-02-05T20:53:40.917Z,27.17
2019-02-05T20:56:10.039Z,27.97
2019-02-05T20:58:39.152Z,24.03
2019-02-05T21:01:08.315Z,24.57
2019-02-05T21:03:37.335Z,24.17
2019-02-05T21:06:07.225Z,24.53
2019-02-05T21:08:36.433Z,27.57
2019-02-05T21:11:05.593Z,24.90
2019-02-05T21:13:34.699Z,33.00
2019-02-05T21:16:04.591Z,37.27
2019-02-05T21:18:33.552Z,31.50
2019-02-05T21:21:02.709Z,32.13
2019-02-05T21:23:31.890Z,26.53
2019-02-05T21:26:00.816Z,31.17
2019-02-05T21:28:30.143Z,24.40
2019-02-05T21:31:02.299Z,31.17
2019-02-05T21:33:31.807Z,30.80
2019-02-05T21:36:03.020Z,25.83
2019-02-05T21:38:45.439Z,25.43
2019-02-05T21:41:13.596Z,26.73
2019-02-05T21:43:43.148Z,24.10
2019-02-05T21:46:12.108Z,23.30
2019-02-05T21:48:41.149Z,25.17
2019-02-05T21:51:10.199Z,27.70
2019-02-05T21:53:39.299Z,26.23
2019-02-05T21:56:08.433Z,27.33
2019-02-05T21:58:39.929Z,27.00
2019-02-05T22:01:09.254Z,24.90
2019-02-05T22:03:38.546Z,26.20
2019-02-05T22:06:07.650Z,29.77
2019-02-05T22:08:36.796Z,25.50
2019-02-05T22:11:06.021Z,27.47
2019-02-05T22:13:35.012Z,27.67
2019-02-05T22:16:04.119Z,38.33
2019-02-05T22:18:33.205Z,29.87
2019-02-05T22:21:02.647Z,29.67
2019-02-05T22:23:33.721Z,43.07
2019-02-05T22:26:02.728Z,36.73
2019-02-05T22:28:31.771Z,45.53
2019-02-05T22:31:02.266Z,32.40
2019-02-05T22:33:31.280Z,27.53
2019-02-05T22:36:00.767Z,29.13
2019-02-05T22:38:29.889Z,31.63
2019-02-05T22:40:59.881Z,26.17
2019-02-05T22:43:28.929Z,28.47
2019-02-05T22:45:58.031Z,26.97
2019-02-05T22:48:27.561Z,33.37
2019-02-05T22:50:56.743Z,31.10
2019-02-05T22:53:26.209Z,30.13
2019-02-05T22:55:55.212Z,27.60
2019-02-05T22:58:24.614Z,28.33
2019-02-05T23:01:18.979Z,27.47
2019-02-05T23:03:59.546Z,36.90
2019-02-05T23:06:50.750Z,30.17
2019-02-05T23:09:26.308Z,31.40
2019-02-05T23:12:19.484Z,26.87
2019-02-05T23:14:51.857Z,28.63
2019-02-05T23:17:21.057Z,30.70
2019-02-05T23:19:50.121Z,30.50
2019-02-05T23:22:19.059Z,33.37
2019-02-05T23:24:48.159Z,30.70
2019-02-05T23:27:17.189Z,30.87
2019-02-05T23:29:46.496Z,32.00
2019-02-05T23:32:15.557Z,29.90
2019-02-05T23:34:44.548Z,31.67
2019-02-05T23:37:13.558Z,31.20
2019-02-05T23:39:42.579Z,30.27
2019-02-05T23:42:11.790Z,32.37
2019-02-05T23:44:41.122Z,34.27
2019-02-05T23:47:10.173Z,30.70
2019-02-05T23:49:39.232Z,29.80
2019-02-05T23:52:08.377Z,29.40
2019-02-05T23:54:37.389Z,29.33
2019-02-05T23:57:06.491Z,32.07
2019-02-05T23:59:37.188Z,36.87
